Time;durP1;ratioP1;P1;durP2;ratioP2;P2;SDS_P1;SDS_P2;PMS_P1;PMS_P2;Temp;Humidity;BMP_temperature;BMP_pressure;BME280_temperature;BME280_humidity;BME280_pressure;Samples;Min_cycle;Max_cycle;Signal;HPM_P1;HPM_P2
2023/04/02 00:01:17;;;;;;;2.40;2.30;;;15.00;75.20;;;;;;5054428;28;20217;-66
2023/04/02 00:04:22;;;;;;;3.50;3.20;;;15.00;75.10;;;;;;5054489;28;20208;-66
2023/04/02 00:07:29;;;;;;;2.97;2.53;;;15.00;75.40;;;;;;5053427;28;20275;-66
2023/04/02 00:10:30;;;;;;;4.27;2.50;;;15.00;75.40;;;;;;5054493;28;20420;-65
2023/04/02 00:13:24;;;;;;;2.53;2.33;;;15.00;74.80;;;;;;5054193;28;21061;-65
2023/04/02 00:16:16;;;;;;;2.43;2.33;;;15.00;74.70;;;;;;5053981;28;20867;-67
2023/04/02 00:19:08;;;;;;;2.60;2.47;;;15.00;74.90;;;;;;5054475;28;20420;-65
2023/04/02 00:21:58;;;;;;;2.77;2.57;;;15.00;74.90;;;;;;5054058;28;20557;-65
2023/04/02 00:24:51;;;;;;;4.00;2.57;;;15.00;74.80;;;;;;5055059;28;20410;-66
2023/04/02 00:27:40;;;;;;;2.60;2.40;;;14.90;74.80;;;;;;5054122;28;20463;-67
2023/04/02 00:30:28;;;;;;;3.20;2.57;;;14.90;74.80;;;;;;5054232;28;20429;-66
2023/04/02 00:33:19;;;;;;;3.20;2.90;;;15.00;74.70;;;;;;5053731;28;20538;-66
2023/04/02 00:36:08;;;;;;;2.43;2.27;;;15.00;74.70;;;;;;5054099;28;20424;-64
2023/04/02 00:39:01;;;;;;;3.57;2.77;;;14.90;73.80;;;;;;5054260;28;20466;-66
2023/04/02 00:41:57;;;;;;;2.80;2.60;;;14.90;74.00;;;;;;5053978;28;20617;-65
2023/04/02 00:44:46;;;;;;;3.20;2.57;;;14.90;74.50;;;;;;5054785;28;20778;-66
2023/04/02 00:47:36;;;;;;;2.60;2.40;;;14.90;74.20;;;;;;5054238;28;20902;-66
2023/04/02 00:50:32;;;;;;;4.00;2.53;;;14.90;73.70;;;;;;5055009;28;20212;-67
2023/04/02 00:53:24;;;;;;;2.90;2.60;;;14.90;74.40;;;;;;5054020;28;20526;-66
2023/04/02 00:56:17;;;;;;;2.70;2.37;;;14.90;73.80;;;;;;5055191;28;20197;-66
2023/04/02 00:59:19;;;;;;;2.57;2.37;;;14.90;74.00;;;;;;5054943;28;20413;-65
2023/04/02 01:02:25;;;;;;;2.93;2.33;;;14.90;73.70;;;;;;5057405;28;20479;-71
2023/04/02 01:05:23;;;;;;;2.60;2.40;;;14.90;73.90;;;;;;5057678;28;20790;-66
2023/04/02 01:08:22;;;;;;;2.23;2.03;;;14.90;73.70;;;;;;5054581;28;20791;-67
2023/04/02 01:11:34;;;;;;;2.23;2.07;;;14.90;89.20;;;;;;5054843;28;20420;-66
2023/04/02 01:14:37;;;;;;;2.37;2.17;;;14.90;73.50;;;;;;5055219;28;20443;-66
2023/04/02 01:17:37;;;;;;;2.93;2.63;;;14.90;73.40;;;;;;5055465;28;20501;-65
2023/04/02 01:21:00;;;;;;;2.30;2.10;;;14.90;73.60;;;;;;5054327;28;20202;-66
2023/04/02 01:24:04;;;;;;;2.40;2.10;;;14.90;73.70;;;;;;5054644;28;20519;-66
2023/04/02 01:26:56;;;;;;;2.50;2.27;;;14.90;73.40;;;;;;5054254;28;20197;-66
2023/04/02 01:29:48;;;;;;;3.40;2.60;;;14.90;73.50;;;;;;5053898;28;20502;-66
2023/04/02 01:32:37;;;;;;;2.53;2.03;;;14.90;73.20;;;;;;5051884;28;20440;-66
2023/04/02 01:35:31;;;;;;;2.53;1.90;;;14.90;73.80;;;;;;5054023;28;20525;-66
2023/04/02 01:38:27;;;;;;;2.63;2.43;;;14.90;73.40;;;;;;5054583;28;20291;-65
2023/04/02 01:41:22;;;;;;;2.13;1.93;;;15.10;84.20;;;;;;5053687;28;20522;-66
2023/04/02 01:44:13;;;;;;;3.00;2.20;;;14.80;73.40;;;;;;5054817;28;20916;-66
2023/04/02 01:47:10;;;;;;;2.33;2.23;;;14.80;73.30;;;;;;5054831;28;20425;-65
2023/04/02 01:50:02;;;;;;;2.30;2.10;;;14.90;73.40;;;;;;5054331;28;20514;-66
2023/04/02 01:52:52;;;;;;;2.20;2.10;;;14.80;73.00;;;;;;5053911;28;20491;-65
2023/04/02 01:55:43;;;;;;;2.10;2.00;;;14.90;72.80;;;;;;5054674;28;20435;-65
2023/04/02 01:58:33;;;;;;;2.20;2.10;;;14.80;72.90;;;;;;5071216;28;20463;-65
2023/04/02 02:01:25;;;;;;;2.43;2.30;;;14.80;88.90;;;;;;5050060;28;20543;-66
2023/04/02 02:04:16;;;;;;;2.50;2.10;;;14.80;73.10;;;;;;5053725;28;20916;-65
2023/04/02 02:07:09;;;;;;;2.70;2.07;;;14.70;72.70;;;;;;5053410;28;20432;-66
2023/04/02 02:09:57;;;;;;;2.20;1.87;;;14.80;73.00;;;;;;5053596;28;20193;-65
2023/04/02 02:12:46;;;;;;;3.17;1.90;;;14.80;73.10;;;;;;5052894;28;20436;-65
2023/04/02 02:15:35;;;;;;;2.40;2.20;;;14.90;73.10;;;;;;5053876;28;20491;-66
2023/04/02 02:18:26;;;;;;;2.13;1.93;;;14.80;73.00;;;;;;5053322;28;20224;-65
2023/04/02 02:21:27;;;;;;;5.00;2.00;;;14.80;73.10;;;;;;5053219;28;20280;-65
2023/04/02 02:24:20;;;;;;;2.53;2.07;;;14.90;73.20;;;;;;5052465;28;20228;-65
2023/04/02 02:27:40;;;;;;;1.97;1.77;;;14.80;72.40;;;;;;5054071;28;20862;-65
2023/04/02 02:30:32;;;;;;;1.90;1.80;;;14.80;72.60;;;;;;5052753;28;20998;-66
2023/04/02 02:33:24;;;;;;;2.43;2.23;;;14.80;71.90;;;;;;5056851;28;20209;-67
2023/04/02 02:36:21;;;;;;;3.20;2.37;;;14.80;72.20;;;;;;5057756;28;20552;-65
2023/04/02 02:39:15;;;;;;;2.10;1.80;;;14.80;72.60;;;;;;5057076;28;20577;-66
2023/04/02 02:42:10;;;;;;;1.90;1.80;;;14.80;72.20;;;;;;5056712;28;20899;-65
2023/04/02 02:45:01;;;;;;;3.20;2.03;;;14.90;72.10;;;;;;5057359;28;20509;-66
2023/04/02 02:47:51;;;;;;;1.80;1.70;;;14.80;71.80;;;;;;5057842;28;20523;-67
2023/04/02 02:50:40;;;;;;;2.87;2.23;;;14.80;71.90;;;;;;5056736;28;20278;-66
2023/04/02 02:53:30;;;;;;;2.40;2.20;;;14.80;72.20;;;;;;5056411;28;20237;-65
2023/04/02 02:56:21;;;;;;;2.10;1.83;;;14.80;71.70;;;;;;5055666;28;20522;-65
2023/04/02 02:59:11;;;;;;;1.90;1.80;;;14.80;71.50;;;;;;5057047;28;20416;-66
2023/04/02 03:01:59;;;;;;;2.23;1.83;;;14.80;72.30;;;;;;5055674;28;20221;-67
2023/04/02 03:04:49;;;;;;;1.83;1.70;;;14.80;71.50;;;;;;5056317;28;20518;-66
2023/04/02 03:07:38;;;;;;;2.00;1.87;;;15.90;72.70;;;;;;5057481;28;20424;-65
2023/04/02 03:10:36;;;;;;;2.13;1.97;;;14.80;71.60;;;;;;5063375;28;20983;-65
2023/04/02 03:13:31;;;;;;;2.13;1.93;;;14.80;71.80;;;;;;5056658;28;20490;-66
2023/04/02 03:16:26;;;;;;;1.90;1.80;;;14.90;71.30;;;;;;5056484;28;20505;-66
2023/04/02 03:19:27;;;;;;;2.23;1.93;;;14.80;71.10;;;;;;5056824;28;20498;-71
2023/04/02 03:22:20;;;;;;;2.03;1.87;;;14.70;71.10;;;;;;5055744;28;20546;-65
2023/04/02 03:25:21;;;;;;;1.90;1.80;;;14.70;70.90;;;;;;5056836;28;20251;-66
2023/04/02 03:28:15;;;;;;;1.60;1.50;;;14.80;71.10;;;;;;5056485;28;20510;-66
2023/04/02 03:31:08;;;;;;;2.23;2.03;;;15.00;71.20;;;;;;5056489;28;20980;-66
2023/04/02 03:33:59;;;;;;;2.70;2.10;;;14.70;71.40;;;;;;5057507;28;20838;-66
2023/04/02 03:36:52;;;;;;;1.97;1.87;;;14.70;71.30;;;;;;5056048;28;20486;-65
2023/04/02 03:39:44;;;;;;;2.30;1.90;;;14.80;71.10;;;;;;5056618;28;20420;-66
2023/04/02 03:42:41;;;;;;;2.13;2.03;;;14.70;71.10;;;;;;5055620;28;20610;-65
2023/04/02 03:45:35;;;;;;;2.40;2.20;;;14.70;71.40;;;;;;5054852;28;20284;-69
2023/04/02 03:48:33;;;;;;;2.00;1.80;;;14.60;71.10;;;;;;5055218;28;20205;-66
2023/04/02 03:51:26;;;;;;;2.33;2.13;;;14.80;87.10;;;;;;5056658;28;20503;-65
2023/04/02 03:54:16;;;;;;;1.90;1.80;;;14.70;70.90;;;;;;5056660;28;20539;-66
2023/04/02 03:57:07;;;;;;;3.90;2.07;;;14.70;71.10;;;;;;5061592;28;20522;-69
2023/04/02 04:00:00;;;;;;;1.70;1.60;;;14.60;70.70;;;;;;5068028;28;20470;-65
2023/04/02 04:02:51;;;;;;;2.20;1.73;;;14.70;70.40;;;;;;5088337;22;20483;-63
2023/04/02 04:05:48;;;;;;;1.93;1.67;;;14.70;70.60;;;;;;5073501;28;20193;-63
2023/04/02 04:08:43;;;;;;;1.80;1.70;;;14.70;70.80;;;;;;5072616;28;20449;-65
2023/04/02 04:11:35;;;;;;;1.73;1.43;;;14.80;80.50;;;;;;5073678;28;20275;-65
2023/04/02 04:14:30;;;;;;;2.40;2.20;;;14.70;70.80;;;;;;5074776;28;20205;-62
2023/04/02 04:17:28;;;;;;;2.33;1.63;;;14.80;70.70;;;;;;5074088;28;20427;-63
2023/04/02 04:20:21;;;;;;;2.73;1.90;;;14.70;70.80;;;;;;5076944;28;20433;-63
2023/04/02 04:23:16;;;;;;;2.20;1.93;;;14.70;70.60;;;;;;5074771;28;20664;-63
2023/04/02 04:26:18;;;;;;;2.40;1.77;;;14.70;70.50;;;;;;5074448;28;20431;-63
2023/04/02 04:29:18;;;;;;;2.13;1.60;;;14.80;70.50;;;;;;5074394;28;20433;-63
2023/04/02 04:32:16;;;;;;;3.03;1.87;;;14.80;70.50;;;;;;5073295;28;21059;-63
2023/04/02 04:35:08;;;;;;;1.87;1.70;;;14.70;70.30;;;;;;5074106;28;20813;-63
2023/04/02 04:38:02;;;;;;;2.50;2.00;;;14.70;70.20;;;;;;5074176;28;20462;-63
2023/04/02 04:40:54;;;;;;;1.93;1.77;;;14.70;70.10;;;;;;5073890;28;20473;-63
2023/04/02 04:43:47;;;;;;;2.80;2.07;;;14.70;70.00;;;;;;5072534;28;20470;-63
2023/04/02 04:46:40;;;;;;;1.70;1.60;;;14.70;70.00;;;;;;5073836;28;20970;-63
2023/04/02 04:49:32;;;;;;;1.80;1.70;;;14.80;70.20;;;;;;5072718;28;20453;-63
2023/04/02 04:52:23;;;;;;;2.23;1.90;;;14.80;70.70;;;;;;5073186;28;20496;-63
2023/04/02 04:55:29;;;;;;;2.10;1.90;;;14.80;70.40;;;;;;5073500;28;20508;-63
2023/04/02 04:58:22;;;;;;;2.10;1.80;;;14.70;70.40;;;;;;5072602;28;20524;-63
2023/04/02 05:01:16;;;;;;;1.90;1.80;;;14.70;70.30;;;;;;5073072;28;20232;-63
2023/04/02 05:04:11;;;;;;;1.70;1.60;;;14.70;70.20;;;;;;5072995;28;20224;-63
2023/04/02 05:07:04;;;;;;;3.50;2.33;;;14.80;70.20;;;;;;5073315;28;20423;-63
2023/04/02 05:09:56;;;;;;;2.50;2.00;;;14.70;70.10;;;;;;5074758;28;20419;-62
2023/04/02 05:12:51;;;;;;;2.00;1.80;;;14.80;70.50;;;;;;5073344;28;20299;-63
2023/04/02 05:15:43;;;;;;;1.97;1.57;;;14.70;70.40;;;;;;5072684;28;21061;-65
2023/04/02 05:18:36;;;;;;;2.97;2.10;;;14.70;70.00;;;;;;5073346;28;20618;-65
2023/04/02 05:21:32;;;;;;;2.33;2.20;;;14.70;70.50;;;;;;5077011;28;20288;-63
2023/04/02 05:24:37;;;;;;;3.53;2.00;;;14.70;70.50;;;;;;5083503;28;20916;-63
2023/04/02 05:27:33;;;;;;;2.07;1.93;;;14.70;70.70;;;;;;5075031;28;20442;-63
2023/04/02 05:30:45;;;;;;;2.50;2.30;;;14.70;70.50;;;;;;5073406;28;20423;-63
2023/04/02 05:33:36;;;;;;;4.20;2.53;;;14.70;70.00;;;;;;5072362;28;20443;-63
2023/04/02 05:36:26;;;;;;;2.30;2.20;;;14.70;70.30;;;;;;5072814;28;20961;-63
2023/04/02 05:39:21;;;;;;;2.63;2.03;;;14.70;70.00;;;;;;5073134;28;20435;-63
2023/04/02 05:42:19;;;;;;;2.10;2.00;;;14.70;70.50;;;;;;5072316;28;20471;-62
2023/04/02 05:45:19;;;;;;;2.10;2.00;;;14.70;70.00;;;;;;5073523;28;20506;-63
2023/04/02 05:48:16;;;;;;;2.60;1.80;;;14.70;70.10;;;;;;5073503;28;20465;-62
2023/04/02 05:51:11;;;;;;;1.97;1.80;;;14.70;70.30;;;;;;5073012;28;20564;-63
2023/04/02 05:54:02;;;;;;;2.43;1.50;;;14.60;70.20;;;;;;5073031;28;20849;-63
2023/04/02 05:56:57;;;;;;;1.97;1.87;;;14.60;70.20;;;;;;5072718;28;20514;-63
2023/04/02 05:59:49;;;;;;;1.50;1.40;;;14.60;70.10;;;;;;5073314;28;20418;-62
2023/04/02 06:02:42;;;;;;;2.50;1.80;;;14.60;70.00;;;;;;5073039;28;20491;-63
2023/04/02 06:05:39;;;;;;;2.07;1.50;;;14.60;70.00;;;;;;5070530;28;20421;-63
2023/04/02 06:08:34;;;;;;;1.50;1.40;;;14.60;70.30;;;;;;5071435;28;20278;-62
2023/04/02 06:11:26;;;;;;;2.00;1.60;;;14.60;70.50;;;;;;5070013;28;20506;-63
2023/04/02 06:14:16;;;;;;;1.47;1.37;;;14.60;70.40;;;;;;5070972;28;20415;-63
2023/04/02 06:17:04;;;;;;;2.50;1.60;;;14.60;70.40;;;;;;5071773;28;20432;-63
2023/04/02 06:19:54;;;;;;;1.57;1.40;;;14.60;70.10;;;;;;5070488;28;20423;-63
2023/04/02 06:22:45;;;;;;;1.67;1.20;;;14.60;70.20;;;;;;5070114;28;20443;-63
2023/04/02 06:25:37;;;;;;;1.50;1.40;;;14.60;70.00;;;;;;5070475;28;20426;-63
2023/04/02 06:28:30;;;;;;;1.67;1.47;;;14.60;70.10;;;;;;5071485;28;20510;-63
2023/04/02 06:31:28;;;;;;;1.00;1.00;;;14.60;69.80;;;;;;5070195;28;20494;-63
2023/04/02 06:34:18;;;;;;;2.33;1.67;;;14.50;70.10;;;;;;5069797;28;20424;-63
2023/04/02 06:37:16;;;;;;;1.50;1.40;;;14.50;69.60;;;;;;5071011;28;20485;-63
2023/04/02 06:40:21;;;;;;;1.40;1.30;;;14.50;69.70;;;;;;5071240;28;20465;-62
2023/04/02 06:43:16;;;;;;;1.60;1.33;;;14.50;69.40;;;;;;5072306;28;20768;-63
2023/04/02 06:46:09;;;;;;;1.40;1.20;;;14.50;69.60;;;;;;5070193;28;20510;-63
2023/04/02 06:49:04;;;;;;;3.00;1.47;;;14.50;69.40;;;;;;5070041;28;20833;-63
2023/04/02 06:51:55;;;;;;;2.03;1.50;;;14.50;69.30;;;;;;5072361;28;20522;-63
2023/04/02 06:54:43;;;;;;;1.47;1.37;;;14.50;69.10;;;;;;5070052;28;20419;-63
2023/04/02 06:57:34;;;;;;;2.10;1.30;;;14.50;69.40;;;;;;5070358;28;20801;-63
2023/04/02 07:00:27;;;;;;;2.13;1.70;;;14.50;69.40;;;;;;5071198;28;20907;-62
2023/04/02 07:03:21;;;;;;;1.10;1.10;;;14.50;69.40;;;;;;5070692;28;20797;-62
2023/04/02 07:06:14;;;;;;;1.80;1.30;;;14.60;69.40;;;;;;5071519;28;20510;-63
2023/04/02 07:09:02;;;;;;;1.97;1.70;;;14.60;69.30;;;;;;5071147;28;20584;-62
2023/04/02 07:11:51;;;;;;;1.63;1.20;;;14.30;85.30;;;;;;5068138;28;20427;-63
2023/04/02 07:14:40;;;;;;;1.43;1.33;;;14.60;68.80;;;;;;5070016;28;20776;-63
2023/04/02 07:17:29;;;;;;;2.20;1.10;;;14.60;68.60;;;;;;5070652;28;20823;-62
2023/04/02 07:20:26;;;;;;;1.20;1.10;;;14.60;68.50;;;;;;5072925;28;20434;-63
2023/04/02 07:23:15;;;;;;;1.30;1.20;;;14.60;68.60;;;;;;5066624;28;20475;-63
2023/04/02 07:26:05;;;;;;;1.57;1.00;;;14.70;68.30;;;;;;5061115;28;20423;-63
2023/04/02 07:28:54;;;;;;;1.17;1.07;;;14.70;68.30;;;;;;5074096;28;20600;-63
2023/04/02 07:31:44;;;;;;;1.23;1.10;;;14.50;83.70;;;;;;5054940;28;20198;-63
2023/04/02 07:34:32;;;;;;;1.20;1.10;;;14.60;68.10;;;;;;5053163;28;20573;-63
2023/04/02 07:37:20;;;;;;;1.83;1.73;;;14.70;68.40;;;;;;5054344;28;20443;-63
2023/04/02 07:40:16;;;;;;;1.30;1.20;;;14.60;68.30;;;;;;5053404;28;20521;-63
2023/04/02 07:43:05;;;;;;;1.20;1.10;;;14.60;68.50;;;;;;5052806;28;20547;-63
2023/04/02 07:45:53;;;;;;;2.40;1.40;;;14.70;68.10;;;;;;5053164;28;21048;-63
2023/04/02 07:48:43;;;;;;;1.10;1.00;;;14.70;68.30;;;;;;5053156;28;20562;-63
2023/04/02 07:51:31;;;;;;;1.67;1.40;;;;;;;;;;5053518;28;20918;-63
2023/04/02 07:54:19;;;;;;;2.33;1.03;;;14.70;67.90;;;;;;5053975;28;20507;-63
2023/04/02 07:57:07;;;;;;;0.97;0.93;;;14.70;67.70;;;;;;5059530;28;20440;-63
2023/04/02 07:59:55;;;;;;;1.20;1.10;;;14.70;67.90;;;;;;5074261;28;20431;-63
2023/04/02 08:02:44;;;;;;;2.13;1.30;;;14.60;67.90;;;;;;5073921;28;20236;-63
2023/04/02 08:05:34;;;;;;;1.60;1.13;;;14.60;67.80;;;;;;5073407;28;20465;-63
2023/04/02 08:08:23;;;;;;;1.10;1.00;;;14.80;68.40;;;;;;5072764;28;20423;-63
2023/04/02 08:11:11;;;;;;;1.37;1.00;;;14.60;67.80;;;;;;5072404;28;20419;-63
2023/04/02 08:13:59;;;;;;;1.47;1.37;;;14.60;67.50;;;;;;5074393;28;20423;-63
2023/04/02 08:16:49;;;;;;;1.70;1.27;;;14.70;67.90;;;;;;5073302;28;20466;-63
2023/04/02 08:19:38;;;;;;;1.33;1.17;;;14.60;67.50;;;;;;5074053;28;20209;-63
2023/04/02 08:22:42;;;;;;;1.47;1.10;;;14.60;67.70;;;;;;5071794;28;20812;-63
2023/04/02 08:25:30;;;;;;;1.90;1.00;;;14.60;68.30;;;;;;5073013;28;20884;-63
2023/04/02 08:28:19;;;;;;;1.40;1.30;;;14.70;67.60;;;;;;5073641;28;20509;-63
2023/04/02 08:31:08;;;;;;;3.37;1.27;;;14.70;68.00;;;;;;5073021;28;21026;-65
2023/04/02 08:33:56;;;;;;;1.70;1.00;;;14.70;67.90;;;;;;5074863;28;20217;-63
2023/04/02 08:36:45;;;;;;;1.00;0.90;;;14.70;67.40;;;;;;5073380;28;20508;-63
2023/04/02 08:39:34;;;;;;;1.20;1.20;;;14.90;67.60;;;;;;5071984;28;20419;-62
2023/04/02 08:42:29;;;;;;;1.00;0.90;;;14.80;67.70;;;;;;5071540;28;20996;-63
2023/04/02 08:45:20;;;;;;;2.13;1.13;;;14.80;67.50;;;;;;5072461;28;20462;-65
2023/04/02 08:48:14;;;;;;;1.93;1.10;;;14.80;67.30;;;;;;5073356;28;20772;-65
2023/04/02 08:51:04;;;;;;;1.07;1.07;;;14.80;67.40;;;;;;5071621;28;20278;-65
2023/04/02 08:53:56;;;;;;;2.97;1.27;;;14.80;66.60;;;;;;5072346;28;20450;-65
2023/04/02 08:56:52;;;;;;;2.73;0.97;;;14.80;67.50;;;;;;5072123;28;20262;-65
2023/04/02 08:59:42;;;;;;;1.70;1.00;;;14.80;67.70;;;;;;5074620;28;20669;-65
2023/04/02 09:02:38;;;;;;;1.00;1.00;;;14.80;67.00;;;;;;5073719;28;20466;-65
2023/04/02 09:05:29;;;;;;;1.60;1.00;;;15.00;67.00;;;;;;5072795;28;20724;-65
2023/04/02 09:08:19;;;;;;;1.00;1.00;;;14.80;66.80;;;;;;5074096;28;20243;-63
2023/04/02 09:11:12;;;;;;;1.40;1.30;;;14.80;67.20;;;;;;5073589;28;20435;-63
2023/04/02 09:14:05;;;;;;;1.30;1.10;;;14.80;66.70;;;;;;5073605;28;20872;-63
2023/04/02 09:16:57;;;;;;;1.80;1.00;;;14.90;67.20;;;;;;5072667;28;20286;-63
2023/04/02 09:19:53;;;;;;;1.73;1.03;;;14.90;66.80;;;;;;5073238;28;20892;-63
2023/04/02 09:22:41;;;;;;;1.33;1.10;;;14.80;66.10;;;;;;5073268;28;20225;-62
2023/04/02 09:25:31;;;;;;;1.90;1.30;;;15.00;66.20;;;;;;5073703;28;20220;-63
2023/04/02 09:28:22;;;;;;;1.10;1.00;;;14.80;66.00;;;;;;5073390;28;20461;-64
2023/04/02 09:31:18;;;;;;;3.00;1.60;;;14.80;80.40;;;;;;5071979;28;20424;-63
2023/04/02 09:34:28;;;;;;;1.53;1.10;;;14.90;66.40;;;;;;5073278;28;20633;-62
2023/04/02 09:37:20;;;;;;;1.93;1.17;;;15.00;67.90;;;;;;5072831;28;20276;-62
2023/04/02 09:40:18;;;;;;;1.90;1.00;;;15.00;67.20;;;;;;5073458;28;20684;-63
2023/04/02 09:43:12;;;;;;;2.07;1.00;;;15.00;66.20;;;;;;5071996;28;20576;-63
2023/04/02 09:46:03;;;;;;;1.20;1.10;;;15.10;66.70;;;;;;5073287;28;20462;-62
2023/04/02 09:48:56;;;;;;;1.10;1.10;;;15.00;66.10;;;;;;5073030;28;20423;-62
2023/04/02 09:51:45;;;;;;;1.57;1.20;;;15.00;93.50;;;;;;5071809;28;20620;-62
2023/04/02 09:54:33;;;;;;;1.43;0.90;;;15.00;67.80;;;;;;5073147;28;20687;-62
2023/04/02 09:57:26;;;;;;;1.33;1.17;;;14.20;65.40;;;;;;5072946;28;20249;-62
2023/04/02 10:00:21;;;;;;;2.53;1.60;;;15.00;66.80;;;;;;5072974;28;20197;-63
2023/04/02 10:03:24;;;;;;;3.40;2.40;;;15.10;98.40;;;;;;5073358;28;20232;-62
2023/04/02 10:06:15;;;;;;;3.30;1.13;;;15.50;72.30;;;;;;5072610;28;20463;-63
2023/04/02 10:09:29;;;;;;;3.73;1.47;;;15.40;93.30;;;;;;5072456;28;20205;-62
2023/04/02 10:12:17;;;;;;;1.20;1.00;;;14.90;96.10;;;;;;5071314;28;20310;-62
2023/04/02 10:15:07;;;;;;;2.00;1.10;;;15.10;93.00;;;;;;5072801;28;20572;-62
2023/04/02 10:18:01;;;;;;;1.53;1.10;;;15.00;93.70;;;;;;5072077;28;20242;-62
2023/04/02 10:20:52;;;;;;;1.57;1.00;;;15.00;94.30;;;;;;5072712;28;21000;-62
2023/04/02 10:23:41;;;;;;;2.10;0.90;;;15.20;71.50;;;;;;5071964;28;20534;-63
2023/04/02 10:26:42;;;;;;;2.23;1.10;;;15.40;95.10;;;;;;5071951;28;20270;-62
2023/04/02 10:30:14;;;;;;;6.63;0.80;;;15.40;94.20;;;;;;5070659;28;20420;-62
2023/04/02 10:33:07;;;;;;;3.83;0.90;;;15.50;97.60;;;;;;5071785;28;20462;-62
2023/04/02 10:36:01;;;;;;;1.50;0.90;;;15.40;93.40;;;;;;5071204;28;20569;-63
2023/04/02 10:38:57;;;;;;;1.27;1.17;;;15.30;91.80;;;;;;5071711;28;20431;-63
2023/04/02 10:41:52;;;;;;;1.17;1.00;;;15.40;84.90;;;;;;5071812;28;20510;-63
2023/04/02 10:44:51;;;;;;;1.83;1.40;;;15.40;86.30;;;;;;5072215;28;20419;-63
2023/04/02 10:47:46;;;;;;;2.00;1.00;;;15.30;85.70;;;;;;5075407;28;20506;-63
2023/04/02 10:50:43;;;;;;;1.43;0.90;;;15.40;86.90;;;;;;5072652;28;20434;-63
2023/04/02 10:53:41;;;;;;;1.40;1.00;;;15.40;82.90;;;;;;5073746;28;20443;-63
2023/04/02 10:56:31;;;;;;;1.87;1.10;;;15.30;77.60;;;;;;5077233;28;20910;-63
2023/04/02 10:59:41;;;;;;;1.70;0.80;;;15.60;99.90;;;;;;5076545;28;20434;-63
2023/04/02 11:02:35;;;;;;;1.47;1.00;;;15.40;82.60;;;;;;5075302;28;20647;-63
2023/04/02 11:05:31;;;;;;;1.30;1.20;;;15.30;87.90;;;;;;5075689;28;20940;-63
2023/04/02 11:08:23;;;;;;;3.97;1.10;;;15.40;87.00;;;;;;5075594;28;20714;-63
2023/04/02 11:11:14;;;;;;;1.30;1.00;;;15.50;99.90;;;;;;5074756;28;20692;-63
2023/04/02 11:14:13;;;;;;;0.90;0.90;;;15.20;99.90;;;;;;5075987;28;20818;-63
2023/04/02 11:17:02;;;;;;;3.70;1.10;;;;;;;;;;5075156;28;20275;-63
2023/04/02 11:19:51;;;;;;;1.63;1.00;;;;;;;;;;5076961;28;20642;-63
2023/04/02 11:22:40;;;;;;;1.73;0.90;;;;;;;;;;5075941;28;20271;-62
2023/04/02 11:25:28;;;;;;;1.40;0.93;;;;;;;;;;5075781;28;20451;-63
2023/04/02 11:28:28;;;;;;;1.47;0.87;;;15.40;72.00;;;;;;5076036;28;20207;-63
2023/04/02 11:31:21;;;;;;;1.90;0.93;;;15.80;99.90;;;;;;5076182;28;20207;-63
2023/04/02 11:34:13;;;;;;;2.50;1.27;;;15.40;84.40;;;;;;5075050;28;20453;-63
2023/04/02 11:37:07;;;;;;;1.00;0.90;;;15.50;84.20;;;;;;5075242;28;20423;-63
2023/04/02 11:39:57;;;;;;;1.90;1.37;;;15.50;82.00;;;;;;5074461;28;20446;-63
2023/04/02 11:42:47;;;;;;;2.50;1.10;;;;;;;;;;5075211;28;20231;-63
2023/04/02 11:45:56;;;;;;;0.80;0.80;;;15.50;74.90;;;;;;5075453;28;20966;-64
2023/04/02 11:48:47;;;;;;;1.57;1.00;;;;;;;;;;5073950;28;20420;-63
2023/04/02 11:51:50;;;;;;;3.70;1.17;;;15.50;78.60;;;;;;5074947;28;20438;-63
2023/04/02 11:55:00;;;;;;;2.60;0.90;;;15.50;84.80;;;;;;5075059;28;20431;-63
2023/04/02 11:57:57;;;;;;;1.33;1.03;;;15.60;82.70;;;;;;5074761;28;20223;-63
2023/04/02 12:01:21;;;;;;;1.83;1.10;;;15.50;78.60;;;;;;5074692;28;20645;-63
2023/04/02 12:04:37;;;;;;;1.43;0.90;;;15.60;77.40;;;;;;5073604;28;20247;-63
2023/04/02 12:07:37;;;;;;;0.97;0.83;;;15.50;83.80;;;;;;5074062;28;20685;-64
2023/04/02 12:10:33;;;;;;;3.57;0.83;;;15.60;82.70;;;;;;5074614;28;20695;-64
2023/04/02 12:13:47;;;;;;;2.10;0.90;;;15.60;84.60;;;;;;5073388;28;20217;-63
2023/04/02 12:16:36;;;;;;;1.03;0.90;;;;;;;;;;5074175;28;20727;-62
2023/04/02 12:19:29;;;;;;;1.77;1.10;;;15.60;82.70;;;;;;5073371;28;20576;-63
2023/04/02 12:22:21;;;;;;;1.10;0.80;;;15.70;83.50;;;;;;5073087;28;20271;-64
2023/04/02 12:25:25;;;;;;;1.43;0.93;;;15.80;99.90;;;;;;5074285;28;20211;-64
2023/04/02 12:28:18;;;;;;;0.80;0.80;;;15.70;97.10;;;;;;5074253;28;20235;-63
2023/04/02 12:31:13;;;;;;;1.23;0.90;;;15.70;84.40;;;;;;5073451;28;20197;-64
2023/04/02 12:34:02;;;;;;;1.47;0.90;;;;;;;;;;5074540;28;20326;-63
2023/04/02 12:36:58;;;;;;;1.00;0.80;;;15.70;99.90;;;;;;5073489;28;20549;-63
2023/04/02 12:39:53;;;;;;;1.07;0.80;;;15.60;99.90;;;;;;5074206;28;20338;-64
2023/04/02 12:42:41;;;;;;;1.10;1.00;;;;;;;;;;5074524;28;20217;-64
2023/04/02 12:45:33;;;;;;;1.43;1.00;;;15.70;81.10;;;;;;5073034;28;20692;-64
2023/04/02 12:48:21;;;;;;;1.27;0.93;;;;;;;;;;5073822;28;20216;-63
2023/04/02 12:51:10;;;;;;;0.83;0.80;;;15.70;80.30;;;;;;5074359;28;20266;-63
2023/04/02 12:54:00;;;;;;;3.10;0.83;;;15.50;99.90;;;;;;5073633;28;20322;-63
2023/04/02 12:56:49;;;;;;;1.70;0.90;;;;;;;;;;5073418;28;20276;-63
2023/04/02 12:59:38;;;;;;;2.60;1.07;;;;;;;;;;5071747;28;20944;-64
2023/04/02 13:02:29;;;;;;;3.53;1.00;;;15.70;83.30;;;;;;5074286;28;20513;-64
2023/04/02 13:05:34;;;;;;;2.10;0.80;;;15.70;99.90;;;;;;5074916;28;20224;-64
2023/04/02 13:08:26;;;;;;;1.40;0.90;;;15.60;79.60;;;;;;5073173;28;20630;-64
2023/04/02 13:11:15;;;;;;;1.67;1.07;;;15.60;80.20;;;;;;5073206;28;20197;-63
2023/04/02 13:14:06;;;;;;;2.70;1.00;;;15.70;80.80;;;;;;5072652;28;20283;-63
2023/04/02 13:16:55;;;;;;;1.77;1.27;;;15.60;78.40;;;;;;5073219;28;20254;-63
2023/04/02 13:19:43;;;;;;;3.40;1.37;;;;;;;;;;5072921;28;20266;-64
2023/04/02 13:22:33;;;;;;;1.00;0.80;;;;;;;;;;5072709;28;20451;-62
2023/04/02 13:25:27;;;;;;;2.40;1.00;;;15.60;79.40;;;;;;5073633;28;20501;-63
2023/04/02 13:28:17;;;;;;;2.03;1.10;;;15.70;95.80;;;;;;5072506;28;20582;-63
2023/04/02 13:31:05;;;;;;;2.03;0.80;;;15.70;96.50;;;;;;5072649;28;20192;-63
2023/04/02 13:33:53;;;;;;;1.27;0.73;;;15.80;96.40;;;;;;5072452;28;20231;-63
2023/04/02 13:36:41;;;;;;;4.93;1.00;;;15.80;97.80;;;;;;5072422;28;20518;-64
2023/04/02 13:39:30;;;;;;;2.80;1.00;;;;;;;;;;5072796;28;20213;-64
2023/04/02 13:42:18;;;;;;;1.07;0.90;;;;;;;;;;5073037;28;20396;-64
2023/04/02 13:45:20;;;;;;;1.17;1.00;;;15.70;84.40;;;;;;5071793;28;20514;-63
2023/04/02 13:48:13;;;;;;;1.30;1.10;;;15.70;85.20;;;;;;5072975;28;20466;-63
2023/04/02 13:51:02;;;;;;;1.73;1.00;;;;;;;;;;5072884;28;20254;-65
2023/04/02 13:53:53;;;;;;;1.60;0.93;;;15.80;84.20;;;;;;5073079;28;20569;-64
2023/04/02 13:56:42;;;;;;;1.67;0.70;;;;;;;;;;5074438;28;20432;-64
2023/04/02 13:59:30;;;;;;;1.00;0.90;;;;;;;;;;5074030;28;20205;-65
2023/04/02 14:02:24;;;;;;;2.30;1.10;;;16.00;83.00;;;;;;5075169;28;20232;-65
2023/04/02 14:05:23;;;;;;;2.10;0.93;;;15.70;82.40;;;;;;5074265;28;20200;-65
2023/04/02 14:08:20;;;;;;;1.07;0.70;;;15.80;82.10;;;;;;5074011;28;20455;-64
2023/04/02 14:11:23;;;;;;;1.47;0.80;;;15.70;81.90;;;;;;5072784;28;20200;-64
2023/04/02 14:14:24;;;;;;;1.87;0.90;;;15.70;82.70;;;;;;5072672;28;20688;-64
2023/04/02 14:17:24;;;;;;;0.80;0.80;;;15.70;83.00;;;;;;5073518;28;20548;-64
2023/04/02 14:20:23;;;;;;;1.63;0.80;;;15.70;81.30;;;;;;5070946;28;20193;-65
2023/04/02 14:23:24;;;;;;;0.80;0.77;;;15.80;99.10;;;;;;5072112;28;20240;-64
2023/04/02 14:26:21;;;;;;;1.10;0.87;;;15.70;82.40;;;;;;5071390;28;20204;-64
2023/04/02 14:29:16;;;;;;;1.07;0.80;;;15.70;82.40;;;;;;5075673;28;20340;-64
2023/04/02 14:32:09;;;;;;;0.90;0.80;;;15.70;83.00;;;;;;5076291;28;20522;-64
2023/04/02 14:35:05;;;;;;;3.60;0.93;;;15.70;81.40;;;;;;5075891;28;20275;-65
2023/04/02 14:38:02;;;;;;;0.70;0.70;;;15.60;81.40;;;;;;5075814;28;20840;-64
2023/04/02 14:40:55;;;;;;;2.33;0.80;;;15.70;99.90;;;;;;5076670;28;20334;-65
2023/04/02 14:43:47;;;;;;;3.00;1.00;;;15.60;81.10;;;;;;5075442;28;20216;-64
2023/04/02 14:46:37;;;;;;;1.13;0.70;;;15.60;81.50;;;;;;5075170;28;20754;-64
2023/04/02 14:49:31;;;;;;;1.10;0.70;;;15.60;80.90;;;;;;5075784;28;20411;-64
2023/04/02 14:52:23;;;;;;;1.00;0.90;;;15.60;81.90;;;;;;5075539;28;20301;-65
2023/04/02 14:55:18;;;;;;;0.80;0.80;;;15.60;81.40;;;;;;5075626;28;20782;-65
2023/04/02 14:58:14;;;;;;;3.43;1.00;;;15.60;82.10;;;;;;5075922;28;20512;-64
2023/04/02 15:01:06;;;;;;;1.67;0.80;;;15.70;99.40;;;;;;5075602;28;20568;-64
2023/04/02 15:04:01;;;;;;;2.37;1.00;;;15.60;80.10;;;;;;5075798;28;20541;-65
2023/04/02 15:06:52;;;;;;;0.70;0.70;;;15.70;79.50;;;;;;5075026;28;20429;-65
2023/04/02 15:09:47;;;;;;;5.23;0.87;;;15.60;79.70;;;;;;5075437;28;20280;-65
2023/04/02 15:12:38;;;;;;;1.10;0.90;;;15.60;79.80;;;;;;5075499;28;20266;-64